Time;durP1;ratioP1;P1;durP2;ratioP2;P2;SDS_P1;SDS_P2;PMS_P1;PMS_P2;Temp;Humidity;BMP_temperature;BMP_pressure;BME280_temperature;BME280_humidity;BME280_pressure;Samples;Min_cycle;Max_cycle;Signal;HPM_P1;HPM_P2
2022/08/22 00:02:28;;;;;;;2.53;2.10;;;;;;;18.52;75.69;101691.88;5036110;28;20044;-81
2022/08/22 00:05:14;;;;;;;5.75;2.20;;;;;;;18.51;75.84;101684.84;5022541;28;20040;-81
2022/08/22 00:07:44;;;;;;;5.28;2.00;;;;;;;18.51;75.85;101684.84;5051852;28;20040;-81
2022/08/22 00:10:36;;;;;;;3.92;2.40;;;;;;;18.50;75.73;101687.59;5053316;28;20039;-81
2022/08/22 00:13:07;;;;;;;2.97;1.77;;;;;;;18.50;75.98;101688.47;5055592;28;20402;-81
2022/08/22 00:15:33;;;;;;;6.28;1.98;;;;;;;18.50;76.23;101690.25;5053731;28;20055;-81
2022/08/22 00:18:27;;;;;;;3.70;1.70;;;;;;;18.48;75.95;101679.75;5049470;28;20379;-81
2022/08/22 00:21:28;;;;;;;8.23;2.08;;;;;;;18.49;76.14;101691.22;5035665;28;20033;-81
2022/08/22 00:24:21;;;;;;;4.18;1.80;;;;;;;18.47;76.17;101688.66;5053452;28;20041;-81
2022/08/22 00:27:01;;;;;;;6.85;2.10;;;;;;;18.46;76.28;101686.94;5051223;28;20350;-81
2022/08/22 00:29:56;;;;;;;3.13;2.20;;;;;;;18.46;76.36;101686.09;5035097;28;20363;-81
2022/08/22 00:32:34;;;;;;;4.18;1.80;;;;;;;18.45;76.44;101679.94;5035275;28;20344;-81
2022/08/22 00:35:33;;;;;;;2.58;1.73;;;;;;;18.45;76.36;101684.41;5037266;28;20037;-81
2022/08/22 00:38:03;;;;;;;4.28;2.33;;;;;;;18.43;76.74;101681.84;5053472;28;20068;-81
2022/08/22 00:40:52;;;;;;;6.22;2.30;;;;;;;18.42;77.00;101688.91;5033081;28;20232;-81
2022/08/22 00:43:56;;;;;;;3.78;1.75;;;;;;;18.40;76.76;101682.84;5053075;28;20032;-81
2022/08/22 00:46:55;;;;;;;5.20;2.30;;;;;;;18.40;76.81;101682.84;5052259;28;20039;-81
2022/08/22 00:50:04;;;;;;;4.78;2.38;;;;;;;18.40;76.92;101679.34;5022536;28;20328;-81
2022/08/22 00:53:02;;;;;;;4.82;2.10;;;;;;;18.40;76.80;101676.69;5035145;28;20339;-81
2022/08/22 00:55:43;;;;;;;;;;;;;;;18.39;76.88;101677.63;5035697;28;20045;-81
2022/08/22 00:58:38;;;;;;;3.45;1.70;;;;;;;18.38;76.93;101684.75;5040325;28;19923;-81
2022/08/22 01:01:11;;;;;;;4.55;2.22;;;;;;;18.37;76.89;101683.06;5053740;28;20037;-81
2022/08/22 01:03:37;;;;;;;2.70;2.03;;;;;;;18.37;76.96;101687.50;5051768;28;20415;-81
2022/08/22 01:06:15;;;;;;;4.50;2.40;;;;;;;18.37;76.87;101676.88;5054041;28;20041;-81
2022/08/22 01:09:00;;;;;;;4.43;2.33;;;;;;;18.36;76.84;101681.34;5036173;28;20424;-81
2022/08/22 01:11:44;;;;;;;3.80;1.98;;;;;;;18.37;76.83;101679.53;5035842;28;20037;-81
2022/08/22 01:14:35;;;;;;;4.20;1.95;;;;;;;18.37;76.97;101687.50;5034923;28;20067;-81
2022/08/22 01:17:16;;;;;;;3.38;2.08;;;;;;;18.37;77.01;101676.88;5033812;28;20025;-81
2022/08/22 01:20:33;;;;;;;3.47;1.95;;;;;;;18.37;77.02;101682.19;5034964;28;20041;-81
2022/08/22 01:23:24;;;;;;;4.72;1.95;;;;;;;18.37;76.96;101675.09;5067964;28;20062;-81
2022/08/22 01:26:14;;;;;;;2.72;2.30;;;;;;;18.36;77.18;101677.84;5055898;28;20363;-81
2022/08/22 01:28:58;;;;;;;7.22;2.70;;;;;;;18.36;77.26;101677.84;5022987;28;20048;-81
2022/08/22 01:31:26;;;;;;;4.45;2.40;;;;;;;18.35;77.67;101684.91;5018515;28;20057;-81
2022/08/22 01:34:28;;;;;;;4.80;2.50;;;;;;;18.35;77.93;101686.72;5043035;28;20060;-81
2022/08/22 01:37:11;;;;;;;2.88;2.40;;;;;;;18.34;77.82;101685.88;5051047;28;20029;-81
2022/08/22 01:39:51;;;;;;;4.38;2.72;;;;;;;18.35;77.69;101694.69;5035003;28;20064;-81
2022/08/22 01:42:35;;;;;;;5.68;2.63;;;;;;;18.34;77.78;101693.00;5020901;28;20300;-81
2022/08/22 01:45:26;;;;;;;4.57;2.97;;;;;;;18.34;77.78;101696.50;5035214;28;20267;-81
2022/08/22 01:48:05;;;;;;;3.85;2.50;;;;;;;18.34;77.70;101691.19;5033414;28;20111;-81
2022/08/22 01:50:37;;;;;;;7.32;2.70;;;;;;;18.34;78.01;101703.59;5032974;28;20340;-81
2022/08/22 01:53:15;;;;;;;7.15;2.67;;;;;;;18.33;78.22;101697.41;5035667;28;20228;-81
2022/08/22 01:55:59;;;;;;;6.60;2.33;;;;;;;18.33;78.15;101696.56;5014565;28;20045;-81
2022/08/22 01:58:35;;;;;;;5.70;2.80;;;;;;;18.33;78.09;101693.94;5013148;28;20552;-81
2022/08/22 02:01:39;;;;;;;3.38;2.63;;;;;;;18.32;78.38;101687.78;5027010;28;20405;-81
2022/08/22 02:04:15;;;;;;;5.10;3.00;;;;;;;18.30;78.80;101694.97;5038075;28;20103;-81
2022/08/22 02:06:46;;;;;;;5.65;2.65;;;;;;;18.29;78.83;101689.75;5034295;28;20033;-81
2022/08/22 02:09:28;;;;;;;6.68;2.80;;;;;;;18.29;78.81;101689.75;5033298;28;20048;-81
2022/08/22 02:12:17;;;;;;;7.05;2.50;;;;;;;18.27;78.79;101687.19;5056271;28;20052;-81
2022/08/22 02:14:45;;;;;;;;;;;;;;;18.26;78.64;101680.19;5052323;28;20075;-81
2022/08/22 02:17:48;;;;;;;5.57;2.75;;;;;;;18.25;78.34;101683.78;5055717;28;19920;-81
2022/08/22 02:20:27;;;;;;;3.53;2.40;;;;;;;18.23;78.44;101686.53;5036961;28;20566;-82
2022/08/22 02:22:59;;;;;;;7.65;2.85;;;;;;;18.21;78.48;101683.13;5047541;28;20049;-82
2022/08/22 02:25:31;;;;;;;5.07;2.70;;;;;;;18.21;78.65;101677.81;5056102;28;20336;-82
2022/08/22 02:28:07;;;;;;;4.78;2.80;;;;;;;18.21;78.39;101677.81;5058045;28;20235;-82
2022/08/22 02:30:54;;;;;;;4.43;2.58;;;;;;;18.20;78.53;101670.78;5057544;28;20104;-82
2022/08/22 02:33:38;;;;;;;4.00;2.60;;;;;;;18.19;78.57;101669.09;5054856;28;20336;-82
2022/08/22 02:36:38;;;;;;;4.70;2.30;;;;;;;18.20;78.42;101675.25;5031156;28;20351;-82
2022/08/22 02:39:25;;;;;;;4.20;2.40;;;;;;;18.19;78.50;101679.72;5056331;28;20045;-82
2022/08/22 02:42:26;;;;;;;4.22;2.50;;;;;;;18.19;78.59;101685.00;5057826;28;20098;-82
2022/08/22 02:45:21;;;;;;;6.05;2.90;;;;;;;18.20;78.62;101683.19;5057076;28;20067;-82
2022/08/22 02:48:14;;;;;;;6.07;3.08;;;;;;;18.20;78.71;101680.56;5055661;28;20024;-82
2022/08/22 02:51:18;;;;;;;6.28;2.83;;;;;;;18.18;78.65;101685.94;5047653;28;20505;-82
2022/08/22 02:53:54;;;;;;;4.82;2.85;;;;;;;18.16;79.03;101687.00;5048640;28;20080;-82
2022/08/22 02:56:26;;;;;;;3.00;2.70;;;;;;;18.13;79.27;101688.00;5020338;28;20206;-82
2022/08/22 02:59:10;;;;;;;7.68;3.13;;;;;;;18.09;79.40;101675.88;5037696;28;20032;-82
2022/08/22 03:01:40;;;;;;;6.68;3.28;;;;;;;18.05;80.01;101665.56;5052679;28;20033;-82
2022/08/22 03:04:29;;;;;;;6.63;2.75;;;;;;;18.02;80.19;101655.97;5057183;28;20150;-82
2022/08/22 03:07:09;;;;;;;10.98;3.58;;;;;;;17.98;80.28;101659.75;5055284;28;20091;-82
2022/08/22 03:10:14;;;;;;;7.30;3.13;;;;;;;17.98;80.35;101651.81;5036935;28;20045;-82
2022/08/22 03:13:06;;;;;;;6.30;2.80;;;;;;;17.99;80.34;101662.34;5035869;28;20033;-82
2022/08/22 03:15:41;;;;;;;8.35;3.28;;;;;;;18.00;80.11;101655.22;5044148;28;20070;-82
2022/08/22 03:18:13;;;;;;;4.35;2.70;;;;;;;18.00;80.19;101650.78;5055571;28;20029;-82
2022/08/22 03:20:51;;;;;;;5.30;2.42;;;;;;;17.99;80.25;101643.78;5056732;28;20032;-82
2022/08/22 03:23:27;;;;;;;14.27;3.83;;;;;;;17.97;80.48;101637.72;5042110;28;20049;-82
2022/08/22 03:26:18;;;;;;;5.22;3.25;;;;;;;17.95;80.40;101634.28;5017283;28;20047;-82
2022/08/22 03:28:51;;;;;;;4.60;3.08;;;;;;;17.93;80.52;101630.88;5036729;28;20453;-82
2022/08/22 03:31:24;;;;;;;7.32;3.45;;;;;;;17.92;80.91;101630.97;5056604;28;20040;-82
2022/08/22 03:34:19;;;;;;;4.32;3.25;;;;;;;17.90;81.08;101627.56;5056662;28;20043;-82
2022/08/22 03:37:09;;;;;;;8.98;3.58;;;;;;;17.90;81.09;101628.44;5055430;28;20041;-82
2022/08/22 03:40:01;;;;;;;6.22;2.88;;;;;;;17.92;80.80;101633.59;5047655;28;20218;-82
2022/08/22 03:43:02;;;;;;;6.93;3.00;;;;;;;17.93;80.50;101635.34;5054547;28;20031;-82
2022/08/22 03:46:24;;;;;;;7.72;2.80;;;;;;;17.96;80.61;101630.69;5054111;28;20504;-82
2022/08/22 03:48:55;;;;;;;4.88;3.00;;;;;;;17.97;80.14;101626.25;5018154;28;20111;-82
2022/08/22 03:51:39;;;;;;;6.95;2.60;;;;;;;17.98;80.09;101627.97;5041569;28;20044;-82
2022/08/22 03:54:40;;;;;;;3.47;2.58;;;;;;;18.00;79.97;101631.38;5049704;28;20043;-82
2022/08/22 03:57:50;;;;;;;8.57;2.90;;;;;;;17.99;80.06;101624.34;5054846;28;20037;-82
2022/08/22 04:00:34;;;;;;;5.85;3.03;;;;;;;18.00;79.69;101629.56;5014520;28;20026;-82
2022/08/22 04:03:24;;;;;;;4.93;3.20;;;;;;;18.00;80.03;101631.38;5023587;28;20060;-82
2022/08/22 04:06:14;;;;;;;3.50;2.60;;;;;;;17.99;79.73;101635.84;5036157;28;20367;-83
2022/08/22 04:09:01;;;;;;;3.78;2.70;;;;;;;17.99;79.61;101638.47;5035898;28;20113;-82
2022/08/22 04:12:14;;;;;;;3.58;2.67;;;;;;;17.99;79.39;101643.78;5043295;28;20036;-82
2022/08/22 04:15:15;;;;;;;5.32;2.97;;;;;;;17.98;79.52;101644.72;5054857;28;20108;-82
2022/08/22 04:18:08;;;;;;;5.07;2.90;;;;;;;17.98;79.46;101646.53;5054168;28;20358;-82
2022/08/22 04:21:08;;;;;;;4.28;2.78;;;;;;;17.97;79.35;101650.97;5046416;28;20051;-82
2022/08/22 04:23:57;;;;;;;2.80;2.60;;;;;;;17.96;79.17;101649.25;5035248;28;20107;-82
2022/08/22 04:26:46;;;;;;;4.97;2.50;;;;;;;17.96;79.26;101653.72;5034024;28;20112;-82
2022/08/22 04:29:30;;;;;;;4.47;2.47;;;;;;;17.94;79.35;101650.31;5035732;28;20044;-82
2022/08/22 04:32:21;;;;;;;6.93;3.03;;;;;;;17.93;79.22;101661.84;5036444;28;20100;-82
2022/08/22 04:34:54;;;;;;;5.80;3.13;;;;;;;17.92;79.16;101666.28;5035383;28;20033;-82
2022/08/22 04:37:33;;;;;;;4.55;2.70;;;;;;;17.91;79.09;101663.72;5035483;28;20033;-82
2022/08/22 04:40:06;;;;;;;3.85;2.58;;;;;;;17.91;79.23;101663.72;5034641;28;20033;-82
2022/08/22 04:42:37;;;;;;;4.63;3.08;;;;;;;17.89;79.03;101657.66;5038425;28;20033;-82
2022/08/22 04:45:09;;;;;;;7.53;3.13;;;;;;;17.88;79.22;101661.25;5050133;28;20060;-82
2022/08/22 04:47:59;;;;;;;4.30;2.88;;;;;;;17.87;79.04;101662.19;5036766;28;20068;-82
2022/08/22 04:50:39;;;;;;;5.75;2.72;;;;;;;17.87;79.30;101667.50;5047448;28;20044;-82
2022/08/22 04:53:22;;;;;;;4.13;2.72;;;;;;;17.84;79.23;101672.00;5035199;28;20335;-82
2022/08/22 04:56:05;;;;;;;3.70;2.75;;;;;;;17.83;79.05;101665.00;5032384;28;20037;-82
2022/08/22 04:58:47;;;;;;;4.72;2.70;;;;;;;17.83;79.04;101672.94;5032443;28;20025;-82
2022/08/22 05:01:17;;;;;;;3.90;2.85;;;;;;;17.82;79.41;101675.66;5051101;28;20037;-82
2022/08/22 05:03:50;;;;;;;4.65;3.05;;;;;;;17.82;79.08;101683.63;5046068;28;20044;-82
2022/08/22 05:06:18;;;;;;;5.68;3.20;;;;;;;17.81;78.91;101679.28;5044109;28;20068;-82
2022/08/22 05:08:46;;;;;;;5.13;2.47;;;;;;;17.79;79.10;101673.19;5033586;28;20036;-82
2022/08/22 05:11:16;;;;;;;6.68;2.70;;;;;;;17.79;79.10;101673.19;5015078;28;20037;-82
2022/08/22 05:13:49;;;;;;;4.63;2.88;;;;;;;17.79;79.18;101679.38;5034138;28;20033;-82
2022/08/22 05:16:24;;;;;;;7.18;3.03;;;;;;;17.78;79.19;101685.59;5038626;28;20045;-82
2022/08/22 05:18:56;;;;;;;2.97;2.75;;;;;;;17.77;79.28;101683.91;5031937;28;20385;-82
2022/08/22 05:21:28;;;;;;;6.47;2.75;;;;;;;17.77;79.27;101689.19;5031512;28;20029;-83
2022/08/22 05:24:03;;;;;;;4.88;2.60;;;;;;;17.77;79.24;101678.59;5033300;28;20057;-82
2022/08/22 05:26:35;;;;;;;3.90;2.30;;;;;;;17.76;79.21;101690.13;5031519;28;20041;-82
2022/08/22 05:29:06;;;;;;;5.07;2.95;;;;;;;17.75;79.38;101685.75;5034853;28;20033;-82
2022/08/22 05:31:37;;;;;;;6.07;2.78;;;;;;;17.75;79.59;101682.25;5031146;28;20083;-82
2022/08/22 05:34:06;;;;;;;3.03;2.67;;;;;;;17.73;79.44;101682.34;5037445;28;20245;-82
2022/08/22 05:36:39;;;;;;;6.00;3.28;;;;;;;17.73;79.45;101686.78;5034635;28;20446;-82
2022/08/22 05:39:12;;;;;;;3.75;2.65;;;;;;;17.71;79.33;101681.59;5032673;28;20213;-82
2022/08/22 05:41:39;;;;;;;5.53;2.88;;;;;;;17.71;79.40;101678.94;5036359;28;20065;-82
2022/08/22 05:44:14;;;;;;;5.03;2.80;;;;;;;17.69;79.48;101675.53;5034354;28;20069;-82
2022/08/22 05:46:43;;;;;;;5.00;2.75;;;;;;;17.70;79.50;101679.91;5045419;28;20037;-82
2022/08/22 05:49:30;;;;;;;3.50;2.72;;;;;;;17.68;79.79;101681.75;5040228;28;20029;-82
2022/08/22 05:52:14;;;;;;;4.07;2.60;;;;;;;17.65;80.08;101681.94;5038015;28;20325;-82
2022/08/22 05:54:56;;;;;;;7.13;3.55;;;;;;;17.63;80.50;101686.47;5026883;28;20117;-82
2022/08/22 05:57:35;;;;;;;3.35;2.83;;;;;;;17.63;80.62;101687.31;5055404;28;20033;-82
2022/08/22 06:00:10;;;;;;;12.13;3.90;;;;;;;17.60;81.47;101697.25;5055330;28;20048;-82
2022/08/22 06:02:59;;;;;;;8.02;3.80;;;;;;;17.59;81.15;101690.22;5050121;28;20041;-82
2022/08/22 06:05:31;;;;;;;3.92;2.97;;;;;;;17.60;81.36;101699.88;5037400;28;20045;-82
2022/08/22 06:08:06;;;;;;;4.55;3.40;;;;;;;17.59;81.47;101701.69;5030428;28;20100;-82
2022/08/22 06:10:43;;;;;;;8.25;3.40;;;;;;;17.57;81.48;101700.94;5035941;28;20059;-82
2022/08/22 06:13:14;;;;;;;3.55;3.13;;;;;;;17.59;81.80;101707.00;5047740;28;20029;-81
2022/08/22 06:16:06;;;;;;;6.85;3.70;;;;;;;17.58;82.57;101709.72;5032369;28;20034;-81
2022/08/22 06:18:34;;;;;;;8.95;4.07;;;;;;;17.56;82.54;101707.16;5017267;28;20033;-82
2022/08/22 06:21:02;;;;;;;9.90;3.95;;;;;;;17.55;82.65;101702.78;5021160;28;20034;-82
2022/08/22 06:23:49;;;;;;;8.52;3.88;;;;;;;17.53;82.83;101703.81;5015209;28;20060;-82
2022/08/22 06:26:17;;;;;;;8.30;3.58;;;;;;;17.51;82.82;101701.25;5025702;28;20037;-82
2022/08/22 06:28:49;;;;;;;4.97;3.28;;;;;;;17.52;82.97;101710.03;5035803;28;20327;-82
2022/08/22 06:31:23;;;;;;;8.70;3.67;;;;;;;17.46;83.07;101704.19;5035400;28;20024;-82
2022/08/22 06:34:05;;;;;;;13.48;4.22;;;;;;;17.49;82.79;101704.94;5027453;28;20029;-81
2022/08/22 06:36:34;;;;;;;6.15;3.55;;;;;;;17.52;82.97;101708.28;5035781;28;20033;-82
2022/08/22 06:39:29;;;;;;;8.02;3.88;;;;;;;17.52;83.01;101702.09;5027285;28;20173;-82
2022/08/22 06:42:01;;;;;;;6.38;3.33;;;;;;;17.55;82.66;101708.09;5033663;28;20033;-82
2022/08/22 06:44:53;;;;;;;8.85;3.95;;;;;;;17.55;82.92;101707.22;5030536;28;20379;-82
2022/08/22 06:47:32;;;;;;;8.75;4.18;;;;;;;17.57;82.97;101710.66;5056040;28;20224;-82
2022/08/22 06:50:13;;;;;;;10.57;3.90;;;;;;;17.57;83.33;101708.00;5030475;28;20033;-82
2022/08/22 06:53:04;;;;;;;12.38;4.47;;;;;;;17.56;83.50;101706.31;5031275;28;20271;-82
2022/08/22 06:55:31;;;;;;;14.48;5.07;;;;;;;17.56;83.99;101701.00;5035366;28;20068;-82
2022/08/22 06:58:02;;;;;;;12.13;4.68;;;;;;;17.57;83.85;101698.28;5035014;28;20036;-82
2022/08/22 07:00:31;;;;;;;10.35;4.55;;;;;;;17.59;84.13;101695.53;5026200;28;20075;-82
2022/08/22 07:03:12;;;;;;;6.95;4.57;;;;;;;17.60;84.09;101687.50;5029307;28;20121;-82
2022/08/22 07:05:40;;;;;;;15.82;4.45;;;;;;;17.63;83.82;101683.84;5028829;28;20040;-82
2022/08/22 07:08:13;;;;;;;9.30;4.90;;;;;;;17.68;83.45;101678.25;5028676;28;20046;-83
2022/08/22 07:10:44;;;;;;;6.35;3.70;;;;;;;17.71;83.43;101678.94;5033505;28;20037;-82
2022/08/22 07:13:18;;;;;;;8.20;4.15;;;;;;;17.72;83.15;101674.47;5021236;28;20277;-82
2022/08/22 07:15:53;;;;;;;8.05;4.57;;;;;;;17.74;83.19;101678.75;5031221;28;20213;-82
2022/08/22 07:18:22;;;;;;;11.88;4.72;;;;;;;17.75;83.13;101675.16;5028918;28;20321;-83
2022/08/22 07:20:51;;;;;;;11.05;4.60;;;;;;;17.77;83.31;101673.31;5036604;28;20036;-82
2022/08/22 07:23:43;;;;;;;11.68;4.85;;;;;;;17.80;83.10;101669.59;5033045;28;20045;-82
2022/08/22 07:26:26;;;;;;;11.25;4.93;;;;;;;17.83;83.02;101662.34;5037247;28;20037;-83
2022/08/22 07:29:30;;;;;;;8.73;4.45;;;;;;;17.88;82.78;101663.88;5020613;28;20030;-82
2022/08/22 07:32:14;;;;;;;7.80;4.20;;;;;;;17.90;82.81;101660.22;5033696;28;20099;-82
2022/08/22 07:35:01;;;;;;;7.88;4.15;;;;;;;17.95;83.03;101670.53;5022306;28;20034;-82
2022/08/22 07:37:46;;;;;;;10.20;4.05;;;;;;;17.99;82.62;101666.75;5032078;28;20064;-83
2022/08/22 07:40:19;;;;;;;5.95;4.28;;;;;;;18.03;82.60;101663.84;5024626;28;20043;-82
2022/08/22 07:42:51;;;;;;;13.43;4.30;;;;;;;18.10;82.47;101661.69;5026711;28;20041;-82
2022/08/22 07:45:37;;;;;;;12.05;4.35;;;;;;;18.16;82.22;101663.97;5026805;28;20271;-82
2022/08/22 07:48:32;;;;;;;11.55;4.57;;;;;;;18.19;81.72;101662.91;5039604;28;20101;-82
2022/08/22 07:51:08;;;;;;;8.70;4.05;;;;;;;18.22;81.62;101662.75;5031371;28;20053;-82
2022/08/22 07:53:40;;;;;;;7.65;4.40;;;;;;;18.27;81.38;101660.69;5027857;28;20029;-82
2022/08/22 07:56:12;;;;;;;10.73;4.28;;;;;;;18.30;81.74;101667.59;5033809;28;20104;-83
2022/08/22 07:58:41;;;;;;;10.57;4.15;;;;;;;18.36;81.61;101669.88;5022965;28;20034;-83
2022/08/22 08:01:14;;;;;;;8.68;3.88;;;;;;;18.39;81.29;101669.69;5024314;28;20039;-82
2022/08/22 08:03:40;;;;;;;4.40;3.65;;;;;;;18.44;81.40;101669.41;5032901;28;20029;-82
2022/08/22 08:06:07;;;;;;;9.00;4.13;;;;;;;18.46;81.40;101660.41;5029150;28;20033;-82
2022/08/22 08:08:42;;;;;;;5.97;3.13;;;;;;;18.50;81.13;101661.06;5031567;28;20070;-82
2022/08/22 08:11:13;;;;;;;8.63;3.10;;;;;;;18.54;81.19;101662.63;5038258;28;20194;-83
2022/08/22 08:13:42;;;;;;;5.82;3.05;;;;;;;18.57;81.19;101671.25;5036580;28;20025;-82
2022/08/22 08:16:15;;;;;;;8.00;3.15;;;;;;;18.60;80.83;101668.38;5013342;28;20033;-82
2022/08/22 08:18:44;;;;;;;4.13;3.15;;;;;;;18.63;80.68;101663.81;5015421;28;20030;-82
2022/08/22 08:21:24;;;;;;;5.32;3.35;;;;;;;18.64;80.60;101660.25;5022202;28;20048;-82
2022/08/22 08:23:52;;;;;;;7.82;4.03;;;;;;;18.65;80.77;101660.16;5026679;28;20075;-82
2022/08/22 08:26:23;;;;;;;7.45;3.50;;;;;;;18.71;80.06;101657.09;5009643;28;20033;-82
2022/08/22 08:28:52;;;;;;;6.80;4.00;;;;;;;18.74;80.24;101653.44;5026938;28;20398;-82
2022/08/22 08:31:41;;;;;;;6.68;3.67;;;;;;;18.78;80.02;101661.09;5018909;28;20025;-82
2022/08/22 08:34:16;;;;;;;8.15;3.22;;;;;;;18.84;79.93;101653.72;5014249;28;20272;-82
2022/08/22 08:36:56;;;;;;;8.80;3.78;;;;;;;18.89;79.70;101655.13;5012153;28;20340;-82
2022/08/22 08:39:43;;;;;;;9.40;3.72;;;;;;;18.93;79.55;101656.63;5018057;28;20037;-83
2022/08/22 08:43:25;;;;;;;10.68;3.95;;;;;;;18.95;79.18;101651.25;5032961;28;20399;-82
2022/08/22 08:45:42;;;;;;;7.30;3.70;;;;;;;18.96;79.08;101647.66;5019414;28;20072;-83
2022/08/22 08:48:29;;;;;;;4.43;3.00;;;;;;;18.98;78.94;101648.41;5027229;28;20321;-82
2022/08/22 08:51:06;;;;;;;7.60;3.05;;;;;;;19.00;78.88;101641.19;5026367;28;20041;-82
2022/08/22 08:54:05;;;;;;;6.05;3.20;;;;;;;19.04;78.79;101642.69;5024246;28;20034;-82
2022/08/22 08:56:48;;;;;;;9.38;2.65;;;;;;;19.07;78.61;101647.81;5037408;28;20034;-82
2022/08/22 08:59:26;;;;;;;11.75;2.97;;;;;;;19.09;78.49;101640.59;5071087;28;20033;-82
2022/08/22 09:02:04;;;;;;;5.85;3.00;;;;;;;19.16;77.96;101649.03;5018675;28;20042;-82
2022/08/22 09:04:29;;;;;;;6.43;3.03;;;;;;;19.19;77.37;101646.16;5015684;28;20029;-82
2022/08/22 09:07:03;;;;;;;6.93;2.90;;;;;;;19.25;76.86;101651.09;5025905;28;20037;-82
2022/08/22 09:09:31;;;;;;;5.55;2.60;;;;;;;19.30;77.05;101641.03;5029652;28;20290;-82
2022/08/22 09:12:09;;;;;;;6.53;2.85;;;;;;;19.38;76.78;101651.16;5022127;28;20034;-82
2022/08/22 09:14:59;;;;;;;5.97;2.60;;;;;;;19.44;76.58;101647.25;5016195;28;20029;-82
2022/08/22 09:17:36;;;;;;;7.13;2.67;;;;;;;19.49;76.14;101646.00;5017820;28;20276;-83
2022/08/22 09:20:46;;;;;;;7.28;2.35;;;;;;;19.53;74.26;101639.50;5014537;28;20084;-82
2022/08/22 09:23:35;;;;;;;11.05;2.47;;;;;;;19.59;74.67;101642.72;5046642;28;20049;-83
2022/08/22 09:26:11;;;;;;;5.95;2.00;;;;;;;19.62;74.58;101643.38;5025468;28;20100;-82
2022/08/22 09:28:52;;;;;;;4.55;2.30;;;;;;;19.65;73.20;101637.88;5015654;28;20083;-82
2022/08/22 09:31:23;;;;;;;8.90;2.53;;;;;;;19.72;73.49;101638.31;5026734;28;20038;-82
2022/08/22 09:34:09;;;;;;;9.35;2.70;;;;;;;19.80;71.64;101635.19;5030882;28;20064;-82
2022/08/22 09:37:06;;;;;;;6.43;2.30;;;;;;;19.89;71.61;101634.56;5033643;28;20287;-83
2022/08/22 09:39:50;;;;;;;8.93;3.00;;;;;;;19.94;71.89;101621.81;5019577;28;20033;-83
2022/08/22 09:42:36;;;;;;;7.40;2.42;;;;;;;20.01;69.64;101622.22;5025961;28;20292;-82
2022/08/22 09:45:30;;;;;;;6.75;2.45;;;;;;;20.09;69.00;101618.09;5020861;28;20048;-82
2022/08/22 09:47:55;;;;;;;5.57;2.53;;;;;;;20.15;69.00;101616.81;5019151;28;20030;-82
2022/08/22 09:50:46;;;;;;;6.40;2.45;;;;;;;20.16;70.48;101615.88;5022585;28;20366;-82
2022/08/22 09:53:27;;;;;;;5.32;2.13;;;;;;;20.20;70.37;101613.84;5026584;28;20044;-82
2022/08/22 09:56:04;;;;;;;7.38;2.33;;;;;;;20.24;69.62;101612.66;5028729;28;20282;-82
2022/08/22 09:58:43;;;;;;;7.72;2.58;;;;;;;20.30;68.43;101615.75;5025540;28;20061;-82
2022/08/22 10:01:25;;;;;;;5.15;2.55;;;;;;;20.38;68.44;101611.72;5028133;28;20029;-82
2022/08/22 10:04:05;;;;;;;8.65;2.63;;;;;;;20.45;67.35;101605.84;5026306;28;20032;-82
2022/08/22 10:07:07;;;;;;;9.05;2.53;;;;;;;20.49;67.28;101606.50;5027630;28;20431;-82
2022/08/22 10:09:42;;;;;;;7.88;2.15;;;;;;;20.51;67.73;101605.41;5032514;28;20061;-82
2022/08/22 10:12:13;;;;;;;8.43;2.42;;;;;;;20.54;67.26;101601.69;5017817;28;20428;-82
2022/08/22 10:14:54;;;;;;;5.75;2.10;;;;;;;20.56;67.69;101598.94;5013794;28;20030;-82
2022/08/22 10:17:30;;;;;;;6.97;2.63;;;;;;;20.58;68.40;101603.19;5016891;28;20220;-82
2022/08/22 10:20:07;;;;;;;7.07;2.00;;;;;;;20.58;67.39;101613.81;5014463;28;20260;-82
2022/08/22 10:22:51;;;;;;;5.45;2.25;;;;;;;20.59;66.10;101610.22;5013679;28;20109;-82
2022/08/22 10:25:36;;;;;;;6.00;1.90;;;;;;;20.60;66.58;101597.75;5012475;28;20141;-82
2022/08/22 10:28:22;;;;;;;6.72;1.95;;;;;;;20.64;67.20;101608.09;5012237;28;20309;-82
2022/08/22 10:30:57;;;;;;;5.38;2.28;;;;;;;20.70;67.87;101607.66;5032849;28;20265;-82
2022/08/22 10:33:43;;;;;;;7.97;2.53;;;;;;;20.73;68.04;101606.59;5029891;28;20041;-82
2022/08/22 10:36:19;;;;;;;7.38;2.10;;;;;;;20.77;66.92;101596.56;5023060;28;20399;-82
2022/08/22 10:38:50;;;;;;;4.32;2.20;;;;;;;20.83;66.67;101596.13;5036350;28;20328;-82
2022/08/22 10:41:36;;;;;;;5.80;2.45;;;;;;;20.88;65.78;101596.63;5032726;28;20111;-82
2022/08/22 10:44:15;;;;;;;6.13;2.10;;;;;;;20.92;65.58;101602.59;5028422;28;20029;-82
2022/08/22 10:46:55;;;;;;;4.45;1.90;;;;;;;20.96;65.54;101599.59;5027159;28;20033;-82
2022/08/22 10:49:31;;;;;;;7.32;2.20;;;;;;;20.99;63.23;101595.88;5031566;28;20367;-82
2022/08/22 10:52:11;;;;;;;7.38;2.58;;;;;;;21.01;64.33;101601.91;5031482;28;20025;-82
2022/08/22 10:54:50;;;;;;;4.88;1.90;;;;;;;21.06;64.69;101602.44;5036481;28;20396;-82
2022/08/22 10:57:37;;;;;;;5.97;2.10;;;;;;;21.12;64.23;101603.81;5026469;28;20210;-82
2022/08/22 11:00:17;;;;;;;6.72;2.25;;;;;;;21.16;64.89;101608.81;5025780;28;20092;-82
2022/08/22 11:03:00;;;;;;;6.55;2.53;;;;;;;21.21;64.86;101598.66;5018273;28;20295;-82
2022/08/22 11:05:26;;;;;;;6.07;2.45;;;;;;;21.31;62.94;101605.97;5021500;28;20109;-82
2022/08/22 11:08:31;;;;;;;7.43;2.33;;;;;;;21.33;62.99;101598.72;5032362;28;20037;-82
2022/08/22 11:11:17;;;;;;;6.53;2.00;;;;;;;21.36;62.98;101603.81;5016484;28;20268;-82
2022/08/22 11:14:10;;;;;;;7.50;2.03;;;;;;;21.38;63.16;101607.22;5016239;28;20329;-82
2022/08/22 11:17:08;;;;;;;3.97;1.63;;;;;;;21.45;64.39;101603.16;5020004;28;20264;-82
2022/08/22 11:19:36;;;;;;;4.90;2.15;;;;;;;21.46;64.08;101599.53;5027329;28;20041;-82
2022/08/22 11:22:39;;;;;;;4.47;1.90;;;;;;;21.54;62.84;101604.28;5017200;28;20317;-82
2022/08/22 11:25:34;;;;;;;5.65;2.10;;;;;;;21.53;60.27;101598.09;5033992;28;20237;-83
2022/08/22 11:28:11;;;;;;;10.02;2.60;;;;;;;21.59;60.55;101597.66;5014036;28;20364;-82
2022/08/22 11:31:02;;;;;;;5.18;2.20;;;;;;;21.66;59.97;101588.19;5032923;28;20037;-82
2022/08/22 11:33:30;;;;;;;5.43;1.67;;;;;;;21.71;60.04;101590.53;5016547;28;20033;-82
2022/08/22 11:36:23;;;;;;;4.85;1.90;;;;;;;21.76;61.39;101582.19;5020556;28;20324;-82
2022/08/22 11:39:02;;;;;;;5.53;2.10;;;;;;;21.78;62.09;101588.25;5028723;28;20041;-82
2022/08/22 11:41:38;;;;;;;7.60;1.80;;;;;;;21.80;63.41;101591.66;5022195;28;20044;-82
2022/08/22 11:44:28;;;;;;;3.95;1.98;;;;;;;21.83;63.08;101586.94;5015775;28;20227;-82
2022/08/22 11:46:56;;;;;;;4.45;1.98;;;;;;;21.88;62.45;101588.41;5019927;28;20026;-82
2022/08/22 11:49:43;;;;;;;2.92;1.50;;;;;;;21.93;63.28;101594.22;5020600;28;20347;-82
2022/08/22 11:52:28;;;;;;;7.70;2.05;;;;;;;21.96;62.73;101592.19;5021377;28;20326;-83
2022/08/22 11:55:10;;;;;;;7.53;2.25;;;;;;;21.96;61.76;101586.84;5016742;28;20056;-82
2022/08/22 11:57:41;;;;;;;8.00;2.80;;;;;;;21.99;61.57;101588.41;5015279;28;20228;-83
2022/08/22 12:00:28;;;;;;;7.13;2.15;;;;;;;22.03;61.90;101585.41;5017478;28;20029;-83
2022/08/22 12:03:15;;;;;;;9.32;2.13;;;;;;;22.03;61.35;101581.91;5024812;28;20298;-82
2022/08/22 12:05:49;;;;;;;5.72;2.38;;;;;;;22.09;59.91;101573.41;5041522;28;20068;-82
2022/08/22 12:08:45;;;;;;;4.22;1.98;;;;;;;22.13;60.60;101587.34;5025617;28;20059;-82
2022/08/22 12:11:36;;;;;;;4.40;2.00;;;;;;;22.16;62.68;101587.13;5017349;28;20026;-83
2022/08/22 12:14:13;;;;;;;6.50;2.22;;;;;;;22.17;61.83;101578.97;5027776;28;20049;-82
2022/08/22 12:16:45;;;;;;;6.05;2.20;;;;;;;22.21;63.08;101585.78;5020583;28;20033;-83
2022/08/22 12:19:30;;;;;;;2.33;1.73;;;;;;;22.25;61.96;101575.72;5020699;28;20032;-82
2022/08/22 12:22:36;;;;;;;8.32;2.30;;;;;;;22.28;62.60;101570.16;5022048;28;20113;-82
2022/08/22 12:25:39;;;;;;;4.82;2.08;;;;;;;22.31;59.10;101575.25;5021604;28;20140;-82
2022/08/22 12:28:33;;;;;;;5.95;2.50;;;;;;;22.34;60.73;101572.38;5023685;28;20036;-82
2022/08/22 12:31:32;;;;;;;11.32;2.65;;;;;;;22.38;62.28;101565.81;5019214;28;20085;-82
2022/08/22 12:34:12;;;;;;;6.63;2.65;;;;;;;22.43;62.74;101568.97;5017277;28;20033;-82